Time;durP1;ratioP1;P1;durP2;ratioP2;P2;SDS_P1;SDS_P2;PMS_P1;PMS_P2;Temp;Humidity;BMP_temperature;BMP_pressure;BME280_temperature;BME280_humidity;BME280_pressure;Samples;Min_cycle;Max_cycle;Signal;HPM_P1;HPM_P2
2022/08/23 00:06:57;;;;;;;1.63;1.53;;;;;;;19.48;100.00;101176.94;20705609;28;20052;-75
2022/08/23 00:16:59;;;;;;;2.67;1.70;;;;;;;19.47;100.00;101186.03;20708673;28;20285;-75
2022/08/23 00:27:06;;;;;;;2.75;1.70;;;;;;;19.46;100.00;101184.31;20708557;28;20053;-75
2022/08/23 00:37:09;;;;;;;2.00;1.85;;;;;;;19.29;100.00;101139.97;20694803;28;20495;-75
2022/08/23 00:57:33;;;;;;;1.80;1.70;;;;;;;19.36;100.00;101145.63;20708877;28;20160;-75
2022/08/23 01:07:54;;;;;;;2.33;1.77;;;;;;;19.29;100.00;101131.88;20703823;28;20597;-75
2022/08/23 01:18:04;;;;;;;2.63;1.77;;;;;;;19.44;100.00;101153.88;20763117;28;20057;-75
2022/08/23 01:28:07;;;;;;;2.20;1.70;;;;;;;19.44;100.00;101158.44;20695267;28;20046;-75
2022/08/23 01:38:10;;;;;;;2.38;1.70;;;;;;;19.43;100.00;101160.28;20720571;28;20054;-75
2022/08/23 01:48:13;;;;;;;1.52;1.30;;;;;;;19.31;100.00;101132.56;20704325;28;20057;-76
2022/08/23 01:58:14;;;;;;;1.92;1.58;;;;;;;19.41;100.00;101162.25;20677005;28;20042;-75
2022/08/23 02:18:38;;;;;;;1.42;1.33;;;;;;;19.32;100.00;101142.38;20682410;28;20053;-75
2022/08/23 02:28:40;;;;;;;2.13;1.42;;;;;;;19.41;100.00;101159.56;20706792;28;20105;-75
2022/08/23 02:38:42;;;;;;;1.48;1.25;;;;;;;18.92;100.00;101081.19;20693293;28;20046;-74
2022/08/23 02:48:43;;;;;;;2.47;1.42;;;;;;;19.09;100.00;101101.28;20716983;28;20046;-74
2022/08/23 02:58:46;;;;;;;2.10;1.27;;;;;;;19.47;100.00;101150.94;20711772;28;20499;-75
2022/08/23 03:08:55;;;;;;;2.13;1.52;;;;;;;19.38;100.00;101132.84;20692523;28;20057;-74
2022/08/23 03:18:57;;;;;;;1.95;1.30;;;;;;;19.50;100.00;101142.53;20674521;28;20135;-74
2022/08/23 03:28:59;;;;;;;2.10;1.20;;;;;;;19.51;100.00;101160.44;20700710;28;20045;-74
2022/08/23 03:39:06;;;;;;;1.35;1.00;;;;;;;19.52;100.00;101156.75;20709802;28;20123;-73
2022/08/23 03:49:08;;;;;;;1.50;1.30;;;;;;;19.21;100.00;101105.56;20716837;28;20042;-74
2022/08/23 03:59:18;;;;;;;1.65;1.10;;;;;;;19.54;100.00;101170.97;20716489;28;20499;-73
2022/08/23 04:09:20;;;;;;;1.73;1.10;;;;;;;19.45;100.00;101149.34;20699655;28;20128;-74
2022/08/23 04:19:22;;;;;;;1.90;1.10;;;;;;;19.54;100.00;101179.06;20714741;28;20041;-73
2022/08/23 04:29:38;;;;;;;1.47;1.10;;;;;;;19.46;100.00;101172.66;20685856;28;20154;-74
2022/08/23 04:50:08;;;;;;;0.90;0.90;;;;;;;19.24;100.00;101137.66;20684340;28;20045;-74
2022/08/23 05:00:21;;;;;;;1.20;1.00;;;;;;;19.54;100.00;101191.69;20699080;28;20072;-73
2022/08/23 05:10:29;;;;;;;1.00;0.60;;;;;;;18.96;100.00;101113.16;20684175;28;20069;-74
2022/08/23 05:20:31;;;;;;;1.30;0.73;;;;;;;19.54;100.00;101202.50;20711990;28;20429;-74
2022/08/23 05:30:33;;;;;;;1.67;1.00;;;;;;;19.53;100.00;101204.38;20744136;28;20530;-74
2022/08/23 05:40:34;;;;;;;1.27;0.82;;;;;;;19.54;100.00;101218.72;20695202;28;20046;-74
2022/08/23 05:50:43;;;;;;;0.80;0.80;;;;;;;19.53;100.00;101228.69;20693048;28;20220;-73
2022/08/23 06:00:45;;;;;;;0.80;0.80;;;;;;;19.53;100.00;101236.78;20691229;28;20046;-73
2022/08/23 06:10:47;;;;;;;2.47;1.02;;;;;;;19.53;100.00;101247.56;20699180;28;20119;-73
2022/08/23 06:21:07;;;;;;;1.40;0.90;;;;;;;19.53;100.00;101254.81;20719060;28;20406;-73
2022/08/23 06:41:49;;;;;;;1.58;1.00;;;;;;;19.52;100.00;101261.19;20719568;28;20056;-74
2022/08/23 06:52:05;;;;;;;1.10;1.00;;;;;;;19.51;100.00;101257.66;20722561;28;20068;-73
2022/08/23 07:02:31;;;;;;;1.20;1.05;;;;;;;19.32;100.00;101217.97;20720916;28;20065;-74
2022/08/23 07:12:52;;;;;;;1.40;1.10;;;;;;;19.51;100.00;101251.41;20751025;28;20042;-73
2022/08/23 07:22:54;;;;;;;1.95;1.38;;;;;;;19.38;100.00;101227.34;20665382;28;20046;-74
2022/08/23 07:32:57;;;;;;;2.83;1.50;;;;;;;19.44;100.00;101256.47;20689811;28;20046;-73
2022/08/23 07:43:04;;;;;;;2.33;1.80;;;;;;;19.50;100.00;101268.59;20641186;28;20062;-73
2022/08/23 07:53:07;;;;;;;2.13;1.93;;;;;;;19.49;100.00;101277.69;20682053;28;20037;-73
2022/08/23 08:03:11;;;;;;;1.80;1.70;;;;;;;19.47;100.00;101268.88;20693581;28;20104;-73
2022/08/23 08:13:36;;;;;;;3.08;1.90;;;;;;;19.28;100.00;101252.47;20695107;28;20042;-73
2022/08/23 08:23:39;;;;;;;1.55;1.45;;;;;;;19.42;100.00;101282.78;20708060;28;20135;-74
2022/08/23 08:34:01;;;;;;;1.77;1.65;;;;;;;19.42;100.00;101274.66;20661452;28;20046;-75
2022/08/23 08:44:06;;;;;;;2.25;1.70;;;;;;;19.58;100.00;101294.91;20678891;28;20065;-74
2022/08/23 08:54:09;;;;;;;2.10;1.90;;;;;;;19.62;100.00;101297.19;20658765;28;20507;-75
2022/08/23 09:04:15;;;;;;;2.13;1.88;;;;;;;19.26;100.00;101226.63;20705530;28;20064;-73
2022/08/23 09:14:30;;;;;;;1.80;1.70;;;;;;;19.66;100.00;101303.19;20621934;28;20054;-74
2022/08/23 09:24:33;;;;;;;2.13;1.80;;;;;;;19.65;100.00;101296.06;20721439;28;20468;-74
2022/08/23 09:34:42;;;;;;;2.45;2.00;;;;;;;19.63;100.00;101304.28;20731409;28;20045;-74
2022/08/23 09:44:46;;;;;;;2.10;1.90;;;;;;;19.59;100.00;101300.16;20730631;28;20045;-74
2022/08/23 09:54:56;;;;;;;2.22;1.90;;;;;;;19.59;100.00;101296.63;20743388;28;20486;-74
2022/08/23 10:05:38;;;;;;;1.92;1.80;;;;;;;19.59;100.00;101291.22;20690910;28;20071;-74
2022/08/23 10:16:05;;;;;;;2.23;2.03;;;;;;;19.56;100.00;101274.31;20651929;28;20050;-74
2022/08/23 10:26:23;;;;;;;3.08;1.95;;;;;;;19.54;100.00;101268.19;20761955;28;20113;-74
2022/08/23 10:36:43;;;;;;;1.90;1.80;;;;;;;19.55;100.00;101269.91;20753515;28;20053;-74
2022/08/23 10:46:53;;;;;;;2.00;1.90;;;;;;;19.44;100.00;101250.25;20695005;28;20053;-74
2022/08/23 10:56:56;;;;;;;2.10;1.90;;;;;;;19.45;100.00;101247.41;20706336;28;20048;-73
2022/08/23 11:06:59;;;;;;;2.72;1.98;;;;;;;19.53;100.00;101263.78;20673303;28;20057;-74
2022/08/23 11:17:22;;;;;;;2.13;1.93;;;;;;;19.54;100.00;101261.91;20703508;28;20050;-73
2022/08/23 11:27:31;;;;;;;2.47;2.08;;;;;;;19.51;100.00;101265.78;20668939;28;20046;-74
2022/08/23 11:37:48;;;;;;;2.00;1.80;;;;;;;19.53;100.00;101266.47;20747894;28;20037;-74
2022/08/23 11:48:07;;;;;;;2.13;1.92;;;;;;;19.41;100.00;101245.97;20759289;28;20048;-72
2022/08/23 11:58:35;;;;;;;2.03;1.88;;;;;;;19.52;100.00;101253.97;20740680;28;20061;-73
2022/08/23 12:08:37;;;;;;;1.98;1.77;;;;;;;19.53;100.00;101260.22;20707344;28;20038;-73
2022/08/23 12:18:46;;;;;;;2.10;1.90;;;;;;;19.51;100.00;101260.38;20766944;28;20049;-73
2022/08/23 12:28:53;;;;;;;3.60;2.13;;;;;;;19.39;100.00;101253.34;20788974;28;20421;-73
2022/08/23 12:39:14;;;;;;;2.15;1.80;;;;;;;19.52;100.00;101264.78;20790344;28;20049;-73
2022/08/23 12:49:29;;;;;;;2.15;1.90;;;;;;;19.52;100.00;101272.88;20741383;28;20059;-73
2022/08/23 12:59:37;;;;;;;1.97;1.50;;;;;;;19.52;100.00;101263.91;20722186;28;20126;-74
2022/08/23 13:09:40;;;;;;;1.80;1.70;;;;;;;19.52;100.00;101253.97;20747960;28;21025;-73
2022/08/23 13:19:41;;;;;;;4.15;2.05;;;;;;;19.44;100.00;101247.53;20741817;28;20045;-73
2022/08/23 13:29:52;;;;;;;1.95;1.77;;;;;;;19.52;100.00;101259.38;20809237;28;20560;-73
2022/08/23 13:39:57;;;;;;;3.13;2.10;;;;;;;19.34;100.00;101225.91;20721725;28;20057;-72
2022/08/23 13:50:00;;;;;;;2.00;1.80;;;;;;;19.07;100.00;101184.22;20680435;28;20069;-73
2022/08/23 14:00:07;;;;;;;2.20;2.00;;;;;;;19.52;100.00;101245.88;20680724;28;20057;-72
2022/08/23 14:10:09;;;;;;;1.90;1.80;;;;;;;19.49;100.00;101242.56;20708479;28;20076;-72
2022/08/23 14:20:12;;;;;;;2.25;2.05;;;;;;;19.53;100.00;101246.72;20666215;28;20049;-73
2022/08/23 14:30:38;;;;;;;2.20;1.95;;;;;;;19.38;100.00;101230.03;20738377;28;20083;-75
2022/08/23 14:40:56;;;;;;;2.35;1.80;;;;;;;19.48;100.00;101240.88;20660742;28;20050;-76
2022/08/23 14:50:58;;;;;;;2.10;1.90;;;;;;;19.52;100.00;101243.16;20679034;28;20589;-73
2022/08/23 15:00:59;;;;;;;2.45;2.00;;;;;;;19.54;100.00;101227.69;20696015;28;20069;-73
2022/08/23 15:11:03;;;;;;;2.40;2.20;;;;;;;19.56;100.00;101220.28;20668080;28;20059;-72
2022/08/23 15:21:25;;;;;;;2.22;2.03;;;;;;;19.58;100.00;101228.25;20686967;28;20058;-73
2022/08/23 15:31:27;;;;;;;3.55;2.85;;;;;;;19.61;100.00;101230.66;20654174;28;20403;-72
2022/08/23 15:41:29;;;;;;;2.58;2.28;;;;;;;19.63;100.00;101222.44;20679285;28;20518;-72
2022/08/23 15:51:30;;;;;;;2.75;2.30;;;;;;;19.65;100.00;101220.44;20635649;28;20053;-72
2022/08/23 16:01:32;;;;;;;2.45;2.15;;;;;;;19.66;100.00;101227.56;20664283;28;20624;-72
2022/08/23 16:11:34;;;;;;;3.45;2.00;;;;;;;19.42;100.00;101186.44;20675373;28;20078;-73
2022/08/23 16:21:36;;;;;;;3.78;2.20;;;;;;;19.44;100.00;101188.97;20673288;28;20042;-73
2022/08/23 16:31:38;;;;;;;3.00;2.25;;;;;;;19.70;100.00;101226.28;20668058;28;20153;-73
2022/08/23 16:41:40;;;;;;;2.45;2.25;;;;;;;19.69;100.00;101233.53;20678603;28;20057;-73
2022/08/23 16:51:43;;;;;;;3.47;2.40;;;;;;;19.69;100.00;101235.38;20701323;28;20188;-73
2022/08/23 17:01:50;;;;;;;3.30;2.30;;;;;;;19.69;100.00;101228.13;20656168;28;20054;-72
2022/08/23 17:11:52;;;;;;;4.25;2.15;;;;;;;19.70;100.00;101224.44;20675025;28;20559;-72
2022/08/23 17:21:54;;;;;;;2.45;2.25;;;;;;;19.73;100.00;101226.00;20744487;28;20057;-73
2022/08/23 17:31:56;;;;;;;2.95;2.10;;;;;;;19.62;100.00;101220.72;20674939;28;20579;-73
2022/08/23 17:41:58;;;;;;;4.10;2.50;;;;;;;19.44;100.00;101194.38;20670065;28;20041;-72
2022/08/23 17:51:59;;;;;;;2.97;2.40;;;;;;;19.72;100.00;101240.50;20710631;28;20046;-73
2022/08/23 18:02:02;;;;;;;4.30;2.42;;;;;;;19.71;100.00;101257.69;20692838;28;20065;-73
2022/08/23 18:12:05;;;;;;;2.67;2.47;;;;;;;19.69;100.00;101265.09;20704662;28;20073;-73
2022/08/23 18:22:06;;;;;;;2.60;2.40;;;;;;;19.69;100.00;101276.75;20707839;28;20065;-73
2022/08/23 18:32:08;;;;;;;3.92;2.60;;;;;;;19.67;100.00;101277.88;20725086;28;20042;-72
2022/08/23 18:42:11;;;;;;;4.45;2.67;;;;;;;19.39;100.00;101247.94;20725254;28;20057;-72
2022/08/23 18:52:13;;;;;;;2.92;2.25;;;;;;;19.44;100.00;101272.69;20723883;28;20046;-73
2022/08/23 19:02:14;;;;;;;2.83;2.40;;;;;;;19.58;100.00;101305.72;20722861;28;20061;-73
2022/08/23 19:12:16;;;;;;;3.90;2.60;;;;;;;19.63;100.00;101325.91;20723118;28;20048;-73
2022/08/23 19:22:18;;;;;;;3.20;2.58;;;;;;;19.63;100.00;101338.56;20720227;28;20050;-73
2022/08/23 19:32:19;;;;;;;2.78;2.40;;;;;;;19.62;100.00;101336.84;20718419;28;20050;-73
2022/08/23 19:42:22;;;;;;;2.78;2.50;;;;;;;19.32;100.00;101300.78;20718726;28;20945;-72
2022/08/23 19:52:23;;;;;;;3.03;2.42;;;;;;;19.44;100.00;101331.25;20717571;28;20132;-72
2022/08/23 20:02:26;;;;;;;3.17;2.78;;;;;;;19.51;100.00;101360.28;20718078;28;20678;-73
2022/08/23 20:12:28;;;;;;;4.18;2.60;;;;;;;19.59;100.00;101385.75;20778618;28;20059;-72
2022/08/23 20:32:50;;;;;;;3.58;3.10;;;;;;;19.58;100.00;101390.28;20791614;28;20045;-72
2022/08/23 20:42:51;;;;;;;4.22;3.22;;;;;;;19.20;100.00;101337.81;20794472;28;20099;-73
2022/08/23 20:52:53;;;;;;;3.28;2.97;;;;;;;19.56;100.00;101398.53;20794700;28;20045;-72
2022/08/23 21:02:55;;;;;;;3.53;3.22;;;;;;;19.58;100.00;101405.63;20793547;28;20509;-73
2022/08/23 21:12:56;;;;;;;3.88;3.53;;;;;;;19.58;100.00;101402.94;20775628;28;20049;-73
2022/08/23 21:22:58;;;;;;;4.13;3.72;;;;;;;19.56;100.00;101413.88;20793526;28;20391;-72
2022/08/23 21:32:59;;;;;;;4.30;3.90;;;;;;;19.56;100.00;101419.25;20794944;28;20048;-73
2022/08/23 21:43:01;;;;;;;4.18;3.78;;;;;;;19.26;100.00;101367.00;20782836;28;20061;-72
2022/08/23 21:53:03;;;;;;;4.50;4.10;;;;;;;19.21;100.00;101353.88;20807806;28;20099;-73
2022/08/23 22:03:05;;;;;;;4.43;4.03;;;;;;;19.54;100.00;101408.63;20809210;28;20516;-74
2022/08/23 22:13:08;;;;;;;4.70;4.30;;;;;;;19.54;100.00;101407.75;20806811;28;20175;-78
2022/08/23 22:23:10;;;;;;;4.43;4.03;;;;;;;19.25;100.00;101371.50;20771975;28;20046;-73
2022/08/23 22:33:11;;;;;;;5.55;4.45;;;;;;;19.37;100.00;101380.38;20725138;28;20470;-72
2022/08/23 22:43:13;;;;;;;5.00;4.50;;;;;;;19.53;100.00;101406.91;20724388;28;20112;-73
2022/08/23 22:53:16;;;;;;;4.78;4.38;;;;;;;19.53;100.00;101406.91;20722747;28;20050;-73
2022/08/23 23:03:18;;;;;;;5.80;4.53;;;;;;;19.52;100.00;101416.00;20721804;28;20046;-72
2022/08/23 23:13:21;;;;;;;4.78;4.38;;;;;;;19.52;100.00;101416.00;20722623;28;20057;-73
2022/08/23 23:23:23;;;;;;;5.50;5.00;;;;;;;19.52;100.00;101426.78;20703791;28;20406;-73
2022/08/23 23:33:26;;;;;;;5.00;4.60;;;;;;;19.52;100.00;101416.00;20719348;28;20084;-73
2022/08/23 23:43:28;;;;;;;5.22;4.72;;;;;;;19.52;100.00;101415.13;20720593;28;20462;-73
2022/08/23 23:53:29;;;;;;;5.47;4.97;;;;;;;19.51;100.00;101419.69;20718494;28;20449;-73
